createdAt,value
2018-02-18T00:00:25.047Z,1019.87
2018-02-18T00:01:24.922Z,1019.88
2018-02-18T00:02:24.867Z,1019.87
2018-02-18T00:03:24.780Z,1019.85
2018-02-18T00:04:24.790Z,1019.87
2018-02-18T00:05:25.034Z,1019.84
2018-02-18T00:06:24.763Z,1019.84
2018-02-18T00:07:24.759Z,1019.88
2018-02-18T00:08:24.662Z,1019.89
2018-02-18T00:09:24.643Z,1019.87
2018-02-18T00:10:24.634Z,1019.86
2018-02-18T00:11:24.902Z,1019.89
2018-02-18T00:12:24.621Z,1019.93
2018-02-18T00:13:24.556Z,1019.91
2018-02-18T00:14:24.617Z,1019.96
2018-02-18T00:15:24.515Z,1019.96
2018-02-18T00:16:24.478Z,1019.94
2018-02-18T00:17:24.456Z,1019.96
2018-02-18T00:18:24.747Z,1019.92
2018-02-18T00:19:24.413Z,1019.93
2018-02-18T00:20:24.437Z,1019.96
2018-02-18T00:21:24.378Z,1019.97
2018-02-18T00:22:24.341Z,1019.96
2018-02-18T00:23:24.333Z,1019.98
2018-02-18T00:24:24.403Z,1019.95
2018-02-18T00:25:24.581Z,1019.96
2018-02-18T00:26:24.248Z,1020.01
2018-02-18T00:27:24.233Z,1019.98
2018-02-18T00:28:24.207Z,1019.97
2018-02-18T00:29:24.238Z,1019.96
2018-02-18T00:30:24.163Z,1019.95
2018-02-18T00:31:24.139Z,1019.99
2018-02-18T00:32:24.412Z,1019.96
2018-02-18T00:33:24.120Z,1019.98
2018-02-18T00:34:24.114Z,1020.03
2018-02-18T00:35:24.057Z,1019.98
2018-02-18T00:36:24.019Z,1019.98
2018-02-18T00:37:23.994Z,1020.00
2018-02-18T00:38:23.979Z,1020.00
2018-02-18T00:39:24.257Z,1020.01
2018-02-18T00:41:23.977Z,1020.06
2018-02-18T00:42:23.892Z,1020.03
2018-02-18T00:43:23.865Z,1020.06
2018-02-18T00:44:23.902Z,1020.05
2018-02-18T00:45:23.813Z,1020.05
2018-02-18T00:46:24.092Z,1020.05
2018-02-18T00:47:23.818Z,1020.09
2018-02-18T00:48:23.742Z,1020.06
2018-02-18T00:49:23.719Z,1020.07
2018-02-18T00:50:23.711Z,1020.07
2018-02-18T00:51:23.673Z,1020.09
2018-02-18T00:52:23.707Z,1020.05
2018-02-18T00:53:23.930Z,1020.05
2018-02-18T00:54:23.620Z,1020.08
2018-02-18T00:55:23.592Z,1020.06
2018-02-18T00:56:23.610Z,1020.06
2018-02-18T00:57:23.541Z,1020.03
2018-02-18T00:58:23.570Z,1020.02
2018-02-18T00:59:23.790Z,1020.08
2018-02-18T01:00:23.508Z,1020.04
2018-02-18T01:01:23.500Z,1020.06
2018-02-18T01:02:23.421Z,1020.08
2018-02-18T01:03:23.414Z,1020.09
2018-02-18T01:04:23.374Z,1020.13
2018-02-18T01:05:23.662Z,1020.13
2018-02-18T01:06:23.348Z,1020.15
2018-02-18T01:07:23.425Z,1020.15
2018-02-18T01:09:23.268Z,1020.18
2018-02-18T01:10:23.245Z,1020.18
2018-02-18T01:11:23.517Z,1020.18
2018-02-18T01:12:23.289Z,1020.17
2018-02-18T01:13:23.220Z,1020.21
2018-02-18T01:14:23.149Z,1020.14
2018-02-18T01:15:23.132Z,1020.12
2018-02-18T01:16:23.101Z,1020.12
2018-02-18T01:17:23.436Z,1020.14
2018-02-18T01:18:23.061Z,1020.14
2018-02-18T01:19:23.033Z,1020.13
2018-02-18T01:20:23.012Z,1020.16
2018-02-18T01:21:22.987Z,1020.16
2018-02-18T01:22:23.013Z,1020.17
2018-02-18T01:23:23.247Z,1020.17
2018-02-18T01:24:22.914Z,1020.18
2018-02-18T01:25:22.898Z,1020.18
2018-02-18T01:26:22.884Z,1020.15
2018-02-18T01:27:22.856Z,1020.17
2018-02-18T01:28:22.876Z,1020.16
2018-02-18T01:29:23.099Z,1020.18
2018-02-18T01:30:22.779Z,1020.15
2018-02-18T01:31:22.761Z,1020.14
2018-02-18T01:32:22.737Z,1020.17
2018-02-18T01:33:22.710Z,1020.20
2018-02-18T01:34:22.734Z,1020.18
2018-02-18T01:35:22.961Z,1020.22
2018-02-18T01:36:22.638Z,1020.22
2018-02-18T01:37:22.615Z,1020.20
2018-02-18T01:38:22.603Z,1020.21
2018-02-18T01:39:22.578Z,1020.19
2018-02-18T01:40:22.906Z,1020.18
2018-02-18T01:41:22.530Z,1020.13
2018-02-18T01:42:22.809Z,1020.16
2018-02-18T01:43:22.483Z,1020.14
2018-02-18T01:44:22.454Z,1020.13
2018-02-18T01:45:22.435Z,1020.11
2018-02-18T01:46:22.472Z,1020.12
2018-02-18T01:47:22.397Z,1020.14
2018-02-18T01:48:22.360Z,1020.14
2018-02-18T01:49:22.644Z,1020.16
2018-02-18T01:50:22.322Z,1020.12
2018-02-18T01:51:22.296Z,1020.14
2018-02-18T01:52:22.324Z,1020.11
2018-02-18T01:53:22.245Z,1020.08
2018-02-18T01:54:22.227Z,1020.09
2018-02-18T01:55:22.204Z,1020.06
2018-02-18T01:56:22.477Z,1020.07
2018-02-18T01:57:22.158Z,1020.05
2018-02-18T01:58:22.184Z,1020.08
2018-02-18T01:59:22.110Z,1020.07
2018-02-18T02:00:22.079Z,1020.06
2018-02-18T02:01:22.165Z,1020.02
2018-02-18T02:02:22.042Z,1020.04
2018-02-18T02:03:22.315Z,1020.05
2018-02-18T02:04:21.994Z,1020.04
2018-02-18T02:05:21.969Z,1020.04
2018-02-18T02:06:21.989Z,1020.04
2018-02-18T02:07:21.922Z,1020.00
2018-02-18T02:08:21.894Z,1020.06
2018-02-18T02:09:21.868Z,1020.05
2018-02-18T02:10:22.144Z,1020.03
2018-02-18T02:11:21.828Z,1020.03
2018-02-18T02:12:21.904Z,1020.01
2018-02-18T02:13:21.776Z,1020.03
2018-02-18T02:14:21.749Z,1020.04
2018-02-18T02:15:21.744Z,1020.03
2018-02-18T02:16:21.706Z,1020.00
2018-02-18T02:17:21.981Z,1019.99
2018-02-18T02:18:21.713Z,1019.95
2018-02-18T02:19:21.640Z,1019.94
2018-02-18T02:20:21.616Z,1019.99
2018-02-18T02:21:21.587Z,1019.94
2018-02-18T02:22:21.568Z,1019.93
2018-02-18T02:23:21.844Z,1019.96
2018-02-18T02:24:21.571Z,1019.98
2018-02-18T02:25:21.497Z,1019.98
2018-02-18T02:26:21.475Z,1019.99
2018-02-18T02:27:21.456Z,1020.02
2018-02-18T02:28:21.426Z,1020.05
2018-02-18T02:29:21.747Z,1020.03
2018-02-18T02:30:21.379Z,1020.06
2018-02-18T02:31:21.357Z,1020.03
2018-02-18T02:32:21.324Z,1020.03
2018-02-18T02:33:21.309Z,1020.05
2018-02-18T02:34:21.378Z,1020.03
2018-02-18T02:35:21.561Z,1020.02
2018-02-18T02:36:21.341Z,1019.99
2018-02-18T02:37:21.213Z,1020.05
2018-02-18T02:38:21.180Z,1020.06
2018-02-18T02:39:21.167Z,1020.04
2018-02-18T02:40:21.143Z,1020.04
2018-02-18T02:41:21.425Z,1020.04
2018-02-18T02:42:21.136Z,1020.07
2018-02-18T02:43:21.064Z,1020.06
2018-02-18T02:44:21.057Z,1020.03
2018-02-18T02:45:21.025Z,1020.06
2018-02-18T02:46:21.044Z,1020.05
2018-02-18T02:47:21.289Z,1020.04
2018-02-18T02:48:20.945Z,1020.07
2018-02-18T02:49:20.937Z,1020.07
2018-02-18T02:50:20.899Z,1020.07
2018-02-18T02:51:20.880Z,1020.10
2018-02-18T02:52:20.955Z,1020.08
2018-02-18T02:53:21.131Z,1020.07
2018-02-18T02:54:20.803Z,1020.12
2018-02-18T02:55:20.784Z,1020.08
2018-02-18T02:56:20.753Z,1020.13
2018-02-18T02:58:20.761Z,1020.11
2018-02-18T02:59:20.688Z,1020.10
2018-02-18T03:00:20.961Z,1020.13
2018-02-18T03:01:20.682Z,1020.08
2018-02-18T03:02:20.631Z,1020.11
2018-02-18T03:03:20.600Z,1020.11
2018-02-18T03:04:20.576Z,1020.14
2018-02-18T03:05:20.547Z,1020.15
2018-02-18T03:06:20.633Z,1020.13
2018-02-18T03:07:20.811Z,1020.11
2018-02-18T03:08:20.472Z,1020.11
2018-02-18T03:09:20.448Z,1020.05
2018-02-18T03:10:20.425Z,1020.03
2018-02-18T03:11:20.500Z,1020.03
2018-02-18T03:12:20.373Z,1020.00
2018-02-18T03:13:20.352Z,1020.02
2018-02-18T03:14:20.681Z,1020.05
2018-02-18T03:15:20.301Z,1020.04
2018-02-18T03:16:20.332Z,1020.04
2018-02-18T03:17:20.250Z,1020.03
2018-02-18T03:18:20.237Z,1020.02
2018-02-18T03:19:20.202Z,1020.02
2018-02-18T03:20:20.176Z,1020.03
2018-02-18T03:21:20.460Z,1020.03
2018-02-18T03:22:20.184Z,1020.02
2018-02-18T03:23:20.112Z,1020.06
2018-02-18T03:24:20.120Z,1020.01
2018-02-18T03:25:20.069Z,1020.08
2018-02-18T03:26:20.032Z,1020.04
2018-02-18T03:27:20.010Z,1020.09
2018-02-18T03:28:20.334Z,1020.07
2018-02-18T03:29:19.968Z,1020.06
2018-02-18T03:30:19.954Z,1020.05
2018-02-18T03:31:19.933Z,1020.05
2018-02-18T03:32:19.895Z,1020.03
2018-02-18T03:33:19.918Z,1020.02
2018-02-18T03:34:19.840Z,1020.02
2018-02-18T03:36:20.094Z,1020.04
2018-02-18T03:37:19.771Z,1020.03
2018-02-18T03:38:19.754Z,1020.05
2018-02-18T03:39:19.772Z,1020.07
2018-02-18T03:40:19.715Z,1020.06
2018-02-18T03:41:19.678Z,1020.06
2018-02-18T03:42:19.697Z,1020.05
2018-02-18T03:43:19.930Z,1020.06
2018-02-18T03:44:19.612Z,1020.05
2018-02-18T03:45:19.580Z,1020.06
2018-02-18T03:46:19.557Z,1020.06
2018-02-18T03:47:19.577Z,1020.04
2018-02-18T03:48:19.516Z,1020.04
2018-02-18T03:49:19.781Z,1020.06
2018-02-18T03:50:19.462Z,1020.08
2018-02-18T03:51:19.429Z,1020.06
2018-02-18T03:52:19.419Z,1020.08
2018-02-18T03:53:19.432Z,1020.03
2018-02-18T03:55:19.389Z,1020.09
2018-02-18T03:56:19.620Z,1020.08
2018-02-18T03:57:19.285Z,1020.04
2018-02-18T03:58:19.273Z,1020.03
2018-02-18T03:59:19.242Z,1020.06
2018-02-18T04:00:19.217Z,1020.09
2018-02-18T04:01:19.240Z,1020.09
2018-02-18T04:02:19.474Z,1020.07
2018-02-18T04:03:19.142Z,1020.10
2018-02-18T04:04:19.120Z,1020.09
2018-02-18T04:05:19.092Z,1020.08
2018-02-18T04:06:19.064Z,1020.16
2018-02-18T04:08:19.323Z,1020.14
2018-02-18T04:09:18.996Z,1020.14
2018-02-18T04:10:18.974Z,1020.09
2018-02-18T04:11:18.941Z,1020.12
2018-02-18T04:12:19.378Z,1020.12
2018-02-18T04:13:18.942Z,1020.12
2018-02-18T04:14:19.179Z,1020.13
2018-02-18T04:15:18.853Z,1020.10
2018-02-18T04:16:18.819Z,1020.13
2018-02-18T04:17:18.812Z,1020.10
2018-02-18T04:18:18.835Z,1020.12
2018-02-18T04:19:18.747Z,1020.14
2018-02-18T04:20:19.024Z,1020.13
2018-02-18T04:21:18.705Z,1020.16
2018-02-18T04:22:18.687Z,1020.21
2018-02-18T04:23:18.656Z,1020.19
2018-02-18T04:24:18.680Z,1020.23
2018-02-18T04:25:18.600Z,1020.20
2018-02-18T04:26:18.587Z,1020.24
2018-02-18T04:27:18.858Z,1020.22
2018-02-18T04:28:18.526Z,1020.24
2018-02-18T04:29:18.509Z,1020.25
2018-02-18T04:30:18.888Z,1020.26
2018-02-18T04:31:18.462Z,1020.30
2018-02-18T04:32:18.429Z,1020.24
2018-02-18T04:33:18.405Z,1020.27
2018-02-18T04:34:18.697Z,1020.27
2018-02-18T04:35:18.358Z,1020.25
2018-02-18T04:36:18.438Z,1020.24
2018-02-18T04:37:18.309Z,1020.27
2018-02-18T04:38:18.282Z,1020.24
2018-02-18T04:39:18.315Z,1020.24
2018-02-18T04:40:18.239Z,1020.24
2018-02-18T04:41:18.508Z,1020.22
2018-02-18T04:42:18.184Z,1020.22
2018-02-18T04:43:18.165Z,1020.24
2018-02-18T04:44:18.146Z,1020.26
2018-02-18T04:45:18.158Z,1020.23
2018-02-18T04:46:18.082Z,1020.24
2018-02-18T04:47:18.060Z,1020.28
2018-02-18T04:48:18.345Z,1020.29
2018-02-18T04:49:18.009Z,1020.29
2018-02-18T04:50:17.989Z,1020.30
2018-02-18T04:51:18.018Z,1020.32
2018-02-18T04:52:17.935Z,1020.30
2018-02-18T04:53:17.916Z,1020.31
2018-02-18T04:54:17.941Z,1020.34
2018-02-18T04:56:18.135Z,1020.34
2018-02-18T04:57:17.821Z,1020.29
2018-02-18T04:58:17.843Z,1020.29
2018-02-18T04:59:17.760Z,1020.33
2018-02-18T05:00:17.739Z,1020.35
2018-02-18T05:01:17.710Z,1020.30
2018-02-18T05:02:17.753Z,1020.35
2018-02-18T05:03:17.964Z,1020.35
2018-02-18T05:04:17.640Z,1020.35
2018-02-18T05:05:17.619Z,1020.37
2018-02-18T05:06:17.584Z,1020.37
2018-02-18T05:07:17.620Z,1020.38
2018-02-18T05:08:17.539Z,1020.41
2018-02-18T05:09:17.833Z,1020.43
2018-02-18T05:10:17.490Z,1020.44
2018-02-18T05:11:17.476Z,1020.45
2018-02-18T05:12:17.440Z,1020.46
2018-02-18T05:13:17.518Z,1020.48
2018-02-18T05:14:17.392Z,1020.43
2018-02-18T05:15:17.659Z,1020.43
2018-02-18T05:16:17.332Z,1020.44
2018-02-18T05:17:17.312Z,1020.45
2018-02-18T05:20:17.234Z,1020.47
2018-02-18T05:21:17.513Z,1020.48
2018-02-18T05:22:17.193Z,1020.48
2018-02-18T05:23:17.170Z,1020.50
2018-02-18T05:24:17.739Z,1020.48
2018-02-18T05:25:17.112Z,1020.49
2018-02-18T05:26:17.079Z,1020.49
2018-02-18T05:27:17.353Z,1020.47
2018-02-18T05:28:17.036Z,1020.50
2018-02-18T05:29:17.003Z,1020.48
2018-02-18T05:30:17.026Z,1020.49
2018-02-18T05:31:17.057Z,1020.47
2018-02-18T05:32:16.923Z,1020.47
2018-02-18T05:33:17.205Z,1020.46
2018-02-18T05:34:16.881Z,1020.42
2018-02-18T05:35:16.850Z,1020.46
2018-02-18T05:36:16.930Z,1020.44
2018-02-18T05:37:16.806Z,1020.48
2018-02-18T05:38:16.770Z,1020.45
2018-02-18T05:39:17.055Z,1020.48
2018-02-18T05:40:17.082Z,1020.46
2018-02-18T05:41:16.691Z,1020.46
2018-02-18T05:42:16.682Z,1020.50
2018-02-18T05:43:16.642Z,1020.45
2018-02-18T05:44:16.614Z,1020.46
2018-02-18T05:45:16.898Z,1020.48
2018-02-18T05:46:16.680Z,1020.47
2018-02-18T05:47:16.537Z,1020.48
2018-02-18T05:48:16.524Z,1020.49
2018-02-18T05:49:16.483Z,1020.52
2018-02-18T05:50:16.466Z,1020.53
2018-02-18T05:51:16.487Z,1020.53
2018-02-18T05:52:16.712Z,1020.55
2018-02-18T05:53:16.397Z,1020.60
2018-02-18T05:54:16.366Z,1020.58
2018-02-18T05:55:16.331Z,1020.60
2018-02-18T05:56:16.309Z,1020.59
2018-02-18T05:57:16.392Z,1020.58
2018-02-18T05:58:16.250Z,1020.65
2018-02-18T05:59:16.541Z,1020.63
2018-02-18T06:00:16.195Z,1020.62
2018-02-18T06:01:16.169Z,1020.62
2018-02-18T06:02:16.154Z,1020.60
2018-02-18T06:04:16.149Z,1020.65
2018-02-18T06:05:16.078Z,1020.64
2018-02-18T06:06:16.352Z,1020.64
2018-02-18T06:07:16.019Z,1020.65
2018-02-18T06:08:15.991Z,1020.66
2018-02-18T06:09:15.965Z,1020.65
2018-02-18T06:10:15.995Z,1020.68
2018-02-18T06:11:15.913Z,1020.73
2018-02-18T06:12:15.878Z,1020.74
2018-02-18T06:13:16.158Z,1020.70
2018-02-18T06:14:15.838Z,1020.72
2018-02-18T06:15:15.809Z,1020.68
2018-02-18T06:16:15.836Z,1020.72
2018-02-18T06:17:15.754Z,1020.73
2018-02-18T06:18:15.730Z,1020.68
2018-02-18T06:19:15.705Z,1020.70
2018-02-18T06:20:15.970Z,1020.70
2018-02-18T06:21:15.653Z,1020.70
2018-02-18T06:22:15.665Z,1020.71
2018-02-18T06:23:15.590Z,1020.68
2018-02-18T06:24:15.570Z,1020.69
2018-02-18T06:25:15.536Z,1020.66
2018-02-18T06:26:15.537Z,1020.66
2018-02-18T06:27:15.837Z,1020.63
2018-02-18T06:28:15.465Z,1020.65
2018-02-18T06:29:15.430Z,1020.60
2018-02-18T06:30:15.413Z,1020.62
2018-02-18T06:31:15.376Z,1020.63
2018-02-18T06:32:15.363Z,1020.62
2018-02-18T06:33:15.674Z,1020.62
2018-02-18T06:34:15.304Z,1020.62
2018-02-18T06:35:15.284Z,1020.61
2018-02-18T06:36:15.257Z,1020.62
2018-02-18T06:37:15.226Z,1020.61
2018-02-18T06:38:15.269Z,1020.64
2018-02-18T06:39:15.466Z,1020.65
2018-02-18T06:40:15.194Z,1020.62
2018-02-18T06:41:15.109Z,1020.65
2018-02-18T06:42:15.090Z,1020.67
2018-02-18T06:43:15.070Z,1020.72
2018-02-18T06:45:15.311Z,1020.71
2018-02-18T06:46:15.046Z,1020.75
2018-02-18T06:47:14.955Z,1020.74
2018-02-18T06:48:14.937Z,1020.77
2018-02-18T06:49:14.898Z,1020.80
2018-02-18T06:50:14.873Z,1020.78
2018-02-18T06:51:15.145Z,1020.80
2018-02-18T06:52:15.267Z,1020.80
2018-02-18T06:53:14.800Z,1020.78
2018-02-18T06:54:14.785Z,1020.79
2018-02-18T06:55:14.747Z,1020.77
2018-02-18T06:56:14.711Z,1020.75
2018-02-18T06:57:14.993Z,1020.76
2018-02-18T06:58:14.768Z,1020.73
2018-02-18T06:59:14.641Z,1020.73
2018-02-18T07:00:14.614Z,1020.70
2018-02-18T07:01:14.581Z,1020.71
2018-02-18T07:02:14.604Z,1020.75
2018-02-18T07:03:14.843Z,1020.75
2018-02-18T07:04:14.500Z,1020.77
2018-02-18T07:05:14.474Z,1020.79
2018-02-18T07:06:14.499Z,1020.76
2018-02-18T07:07:14.480Z,1020.74
2018-02-18T07:09:14.380Z,1020.79
2018-02-18T07:10:14.753Z,1020.76
2018-02-18T07:11:14.316Z,1020.75
2018-02-18T07:12:14.297Z,1020.76
2018-02-18T07:13:14.276Z,1020.78
2018-02-18T07:14:14.289Z,1020.76
2018-02-18T07:15:14.219Z,1020.77
2018-02-18T07:17:14.174Z,1020.74
2018-02-18T07:18:14.491Z,1020.76
2018-02-18T07:19:14.159Z,1020.80
2018-02-18T07:20:14.087Z,1020.80
2018-02-18T07:21:14.108Z,1020.81
2018-02-18T07:22:14.038Z,1020.86
2018-02-18T07:23:14.010Z,1020.82
2018-02-18T07:24:13.980Z,1020.84
2018-02-18T07:25:14.277Z,1020.84
2018-02-18T07:26:13.932Z,1020.82
2018-02-18T07:27:13.953Z,1020.78
2018-02-18T07:28:13.877Z,1020.83
2018-02-18T07:29:13.957Z,1020.85
2018-02-18T07:30:13.923Z,1020.87
2018-02-18T07:31:13.802Z,1020.87
2018-02-18T07:32:14.078Z,1020.87
2018-02-18T07:33:13.798Z,1020.82
2018-02-18T07:34:13.726Z,1020.84
2018-02-18T07:35:13.753Z,1020.83
2018-02-18T07:36:13.671Z,1020.84
2018-02-18T07:37:13.651Z,1020.89
2018-02-18T07:38:13.622Z,1020.88
2018-02-18T07:39:13.907Z,1020.90
2018-02-18T07:40:13.669Z,1020.92
2018-02-18T07:41:13.554Z,1020.94
2018-02-18T07:42:13.528Z,1020.94
2018-02-18T07:43:13.497Z,1020.94
2018-02-18T07:44:13.475Z,1020.95
2018-02-18T07:45:13.447Z,1020.96
2018-02-18T07:46:13.774Z,1020.96
2018-02-18T07:47:13.404Z,1020.97
2018-02-18T07:48:13.377Z,1020.98
2018-02-18T07:49:13.356Z,1020.97
2018-02-18T07:50:13.343Z,1020.95
2018-02-18T07:51:13.318Z,1020.97
2018-02-18T07:52:13.334Z,1020.97
2018-02-18T07:53:13.566Z,1020.96
2018-02-18T07:54:13.241Z,1020.96
2018-02-18T07:55:13.212Z,1020.95
2018-02-18T07:56:13.210Z,1020.93
2018-02-18T07:57:13.174Z,1020.97
2018-02-18T07:59:13.177Z,1020.92
2018-02-18T08:00:13.402Z,1020.90
2018-02-18T08:01:13.085Z,1020.91
2018-02-18T08:02:13.069Z,1020.90
2018-02-18T08:03:13.086Z,1020.84
2018-02-18T08:04:13.033Z,1020.90
2018-02-18T08:05:13.001Z,1020.87
2018-02-18T08:06:13.274Z,1020.89
2018-02-18T08:07:12.960Z,1020.91
2018-02-18T08:08:13.031Z,1020.92
2018-02-18T08:09:12.919Z,1020.88
2018-02-18T08:10:12.908Z,1020.93
2018-02-18T08:11:12.874Z,1020.94
2018-02-18T08:12:13.152Z,1020.93
2018-02-18T08:13:12.877Z,1020.92
2018-02-18T08:14:12.869Z,1020.93
2018-02-18T08:15:12.839Z,1020.94
2018-02-18T08:16:12.770Z,1020.97
2018-02-18T08:17:12.750Z,1020.96
2018-02-18T08:18:13.038Z,1021.00
2018-02-18T08:19:12.811Z,1020.96
2018-02-18T08:21:12.671Z,1021.00
2018-02-18T08:22:12.708Z,1020.97
2018-02-18T08:23:12.655Z,1021.00
2018-02-18T08:24:12.921Z,1021.05
2018-02-18T08:25:12.601Z,1021.07
2018-02-18T08:26:12.583Z,1021.03
2018-02-18T08:27:12.562Z,1021.11
2018-02-18T08:29:12.626Z,1021.06
2018-02-18T08:30:12.840Z,1021.11
2018-02-18T08:31:12.486Z,1021.16
2018-02-18T08:32:12.467Z,1021.15
2018-02-18T08:33:12.462Z,1021.22
2018-02-18T08:34:12.437Z,1021.25
2018-02-18T08:35:12.477Z,1021.26
2018-02-18T08:36:12.405Z,1021.25
2018-02-18T08:37:12.690Z,1021.24
2018-02-18T08:38:12.364Z,1021.25
2018-02-18T08:39:12.354Z,1021.26
2018-02-18T08:40:12.389Z,1021.27
2018-02-18T08:41:12.314Z,1021.31
2018-02-18T08:42:12.304Z,1021.31
2018-02-18T08:43:12.344Z,1021.27
2018-02-18T08:44:12.563Z,1021.31
2018-02-18T08:45:12.251Z,1021.28
2018-02-18T08:46:12.241Z,1021.30
2018-02-18T08:47:12.224Z,1021.27
2018-02-18T08:48:12.303Z,1021.28
2018-02-18T08:49:12.191Z,1021.33
2018-02-18T08:50:12.176Z,1021.33
2018-02-18T08:51:12.463Z,1021.33
2018-02-18T08:54:12.146Z,1021.32
2018-02-18T08:55:12.231Z,1021.33
2018-02-18T08:56:12.125Z,1021.31
2018-02-18T08:57:12.068Z,1021.32
2018-02-18T08:58:12.358Z,1021.35
2018-02-18T08:59:12.091Z,1021.29
2018-02-18T09:00:12.045Z,1021.30
2018-02-18T09:01:12.015Z,1021.27
2018-02-18T09:02:11.991Z,1021.31
2018-02-18T09:03:12.051Z,1021.32
2018-02-18T09:04:11.969Z,1021.33
2018-02-18T09:05:12.362Z,1021.32
2018-02-18T09:06:11.967Z,1021.26
2018-02-18T09:07:11.926Z,1021.31
2018-02-18T09:08:11.911Z,1021.35
2018-02-18T09:09:11.894Z,1021.32
2018-02-18T09:10:11.992Z,1021.36
2018-02-18T09:11:11.866Z,1021.34
2018-02-18T09:13:12.197Z,1021.41
2018-02-18T09:14:11.883Z,1021.43
2018-02-18T09:15:11.810Z,1021.45
2018-02-18T09:16:11.811Z,1021.44
2018-02-18T09:17:11.841Z,1021.42
2018-02-18T09:18:11.777Z,1021.37
2018-02-18T09:19:11.766Z,1021.43
2018-02-18T09:20:12.046Z,1021.43
2018-02-18T09:21:11.786Z,1021.41
2018-02-18T09:22:11.725Z,1021.39
2018-02-18T09:23:11.705Z,1021.41
2018-02-18T09:24:11.694Z,1021.46
2018-02-18T09:25:11.676Z,1021.42
2018-02-18T09:26:11.964Z,1021.40
2018-02-18T09:27:11.760Z,1021.45
2018-02-18T09:28:11.661Z,1021.47
2018-02-18T09:29:11.625Z,1021.50
2018-02-18T09:30:11.660Z,1021.58
2018-02-18T09:31:11.590Z,1021.52
2018-02-18T09:32:11.874Z,1021.54
2018-02-18T09:33:11.569Z,1021.58
2018-02-18T09:34:11.550Z,1021.53
2018-02-18T09:35:11.583Z,1021.49
2018-02-18T09:36:11.624Z,1021.63
2018-02-18T09:37:11.507Z,1021.57
2018-02-18T09:38:11.806Z,1021.63
2018-02-18T09:39:11.534Z,1021.57
2018-02-18T09:40:11.468Z,1021.69
2018-02-18T09:41:11.462Z,1021.60
2018-02-18T09:42:11.441Z,1021.67
2018-02-18T09:43:11.426Z,1021.64
2018-02-18T09:44:11.758Z,1021.65
2018-02-18T09:45:11.402Z,1021.61
2018-02-18T09:46:11.382Z,1021.55
2018-02-18T09:47:11.467Z,1021.57
2018-02-18T09:49:11.353Z,1021.55
2018-02-18T09:50:11.338Z,1021.53
2018-02-18T09:51:11.623Z,1021.52
2018-02-18T09:52:11.308Z,1021.46
2018-02-18T09:53:11.339Z,1021.50
2018-02-18T09:54:11.296Z,1021.50
2018-02-18T09:55:11.295Z,1021.50
2018-02-18T09:56:11.310Z,1021.49
2018-02-18T09:57:11.543Z,1021.58
2018-02-18T09:58:11.225Z,1021.49
2018-02-18T09:59:11.220Z,1021.60
2018-02-18T10:00:11.199Z,1021.49
2018-02-18T10:01:11.189Z,1021.64
2018-02-18T10:02:11.380Z,1021.57
2018-02-18T10:03:11.468Z,1021.64
2018-02-18T10:04:11.152Z,1021.66
2018-02-18T10:05:11.204Z,1021.65
2018-02-18T10:06:11.128Z,1021.61
2018-02-18T10:07:11.146Z,1021.65
2018-02-18T10:08:11.160Z,1021.37
2018-02-18T10:09:11.104Z,1021.74
2018-02-18T10:10:11.375Z,1021.66
2018-02-18T10:11:11.071Z,1021.66
2018-02-18T10:13:11.036Z,1021.59
2018-02-18T10:14:11.091Z,1021.48
2018-02-18T10:15:11.012Z,1021.29
2018-02-18T10:17:11.353Z,1021.60
2018-02-18T10:19:10.986Z,1021.67
2018-02-18T10:20:10.963Z,1021.68
2018-02-18T10:21:11.009Z,1021.30
2018-02-18T10:22:10.975Z,1021.33
2018-02-18T10:23:11.023Z,1021.71
2018-02-18T10:25:11.206Z,1021.79
2018-02-18T10:26:10.892Z,1021.87
2018-02-18T10:27:10.918Z,1021.88
2018-02-18T10:28:10.929Z,1021.95
2018-02-18T10:29:10.904Z,1021.89
2018-02-18T10:30:10.977Z,1021.81
2018-02-18T10:31:10.949Z,1021.77
2018-02-18T10:32:11.255Z,1021.79
2018-02-18T10:33:10.895Z,1021.75
2018-02-18T10:34:11.039Z,1021.83
2018-02-18T10:35:10.819Z,1021.88
2018-02-18T10:36:10.883Z,1021.84
2018-02-18T10:37:10.790Z,1021.83
2018-02-18T10:38:10.843Z,1021.82
2018-02-18T10:39:11.377Z,1021.87
2018-02-18T10:40:10.811Z,1021.88
2018-02-18T10:41:10.831Z,1021.92
2018-02-18T10:42:10.828Z,1021.93
2018-02-18T10:43:10.680Z,1021.96
2018-02-18T10:44:10.678Z,1021.99
2018-02-18T10:45:10.739Z,1022.02
2018-02-18T10:46:10.929Z,1021.97
2018-02-18T10:47:10.666Z,1022.07
2018-02-18T10:48:10.667Z,1022.11
2018-02-18T10:49:10.593Z,1022.13
2018-02-18T10:50:10.657Z,1021.45
2018-02-18T10:51:10.654Z,1021.38
2018-02-18T10:52:10.569Z,1022.05
2018-02-18T10:53:10.914Z,1022.15
2018-02-18T10:54:10.560Z,1022.17
2018-02-18T10:55:10.534Z,1022.07
2018-02-18T10:56:10.519Z,1022.12
2018-02-18T10:57:10.566Z,1022.21
2018-02-18T10:58:10.496Z,1021.37
2018-02-18T10:59:10.786Z,1022.12
2018-02-18T11:00:10.474Z,1022.19
2018-02-18T11:01:10.481Z,1022.08
2018-02-18T11:02:10.459Z,1021.95
2018-02-18T11:03:10.494Z,1021.52
2018-02-18T11:04:10.509Z,1021.83
2018-02-18T11:05:10.766Z,1022.25
2018-02-18T11:06:10.404Z,1022.25
2018-02-18T11:07:10.439Z,1022.19
2018-02-18T11:08:10.602Z,1022.21
2018-02-18T11:09:10.836Z,1022.25
2018-02-18T11:10:10.431Z,1022.22
2018-02-18T11:11:10.878Z,1022.29
2018-02-18T11:12:10.350Z,1022.26
2018-02-18T11:13:10.335Z,1022.08
2018-02-18T11:14:10.318Z,1022.27
2018-02-18T11:15:10.358Z,1022.21
2018-02-18T11:16:10.314Z,1022.21
2018-02-18T11:17:10.579Z,1022.09
2018-02-18T11:19:10.617Z,1022.13
2018-02-18T11:20:10.248Z,1022.14
2018-02-18T11:21:10.240Z,1022.09
2018-02-18T11:22:10.224Z,1022.11
2018-02-18T11:24:10.502Z,1022.18
2018-02-18T11:25:10.243Z,1022.06
2018-02-18T11:26:10.190Z,1022.02
2018-02-18T11:27:10.183Z,1021.86
2018-02-18T11:28:10.166Z,1021.89
2018-02-18T11:29:10.156Z,1021.85
2018-02-18T11:30:10.445Z,1021.91
2018-02-18T11:31:10.186Z,1021.83
2018-02-18T11:32:10.122Z,1021.73
2018-02-18T11:33:10.108Z,1021.74
2018-02-18T11:34:10.097Z,1021.59
2018-02-18T11:35:10.083Z,1021.55
2018-02-18T11:36:10.421Z,1021.46
2018-02-18T11:37:10.368Z,1021.51
2018-02-18T11:38:10.054Z,1021.63
2018-02-18T11:39:10.046Z,1021.68
2018-02-18T11:40:10.050Z,1021.73
2018-02-18T11:41:10.028Z,1021.70
2018-02-18T11:43:10.356Z,1021.65
2018-02-18T11:44:09.984Z,1021.63
2018-02-18T11:45:09.979Z,1021.60
2018-02-18T11:46:09.968Z,1021.58
2018-02-18T11:47:09.953Z,1021.56
2018-02-18T11:48:09.990Z,1021.55
2018-02-18T11:49:09.943Z,1021.47
2018-02-18T11:50:10.234Z,1021.41
2018-02-18T11:51:09.912Z,1021.44
2018-02-18T11:52:10.010Z,1021.38
2018-02-18T11:53:09.895Z,1021.39
2018-02-18T11:54:09.885Z,1021.23
2018-02-18T11:55:09.978Z,1021.29
2018-02-18T11:56:09.942Z,1021.21
2018-02-18T11:57:10.201Z,1021.21
2018-02-18T11:59:09.833Z,1020.91
2018-02-18T12:00:09.885Z,1021.24
2018-02-18T12:01:09.809Z,1021.19
2018-02-18T12:02:09.794Z,1021.18
2018-02-18T12:03:09.838Z,1021.17
2018-02-18T12:04:10.090Z,1021.15
2018-02-18T12:05:09.769Z,1021.18
2018-02-18T12:06:09.768Z,1021.12
2018-02-18T12:07:09.742Z,1021.14
2018-02-18T12:08:09.734Z,1021.11
2018-02-18T12:09:09.766Z,1021.16
2018-02-18T12:10:09.704Z,1021.15
2018-02-18T12:12:09.693Z,1021.05
2018-02-18T12:13:09.680Z,1020.99
2018-02-18T12:14:09.676Z,1020.99
2018-02-18T12:15:09.722Z,1020.97
2018-02-18T12:16:09.645Z,1021.00
2018-02-18T12:17:10.427Z,1021.06
2018-02-18T12:18:10.391Z,1021.00
2018-02-18T12:19:09.609Z,1021.06
2018-02-18T12:20:09.711Z,1021.00
2018-02-18T12:21:09.589Z,1021.00
2018-02-18T12:22:09.585Z,1020.92
2018-02-18T12:23:09.568Z,1020.95
2018-02-18T12:24:09.610Z,1020.88
2018-02-18T12:25:09.847Z,1020.91
2018-02-18T12:26:09.544Z,1020.98
2018-02-18T12:27:09.536Z,1020.96
2018-02-18T12:28:09.563Z,1020.90
2018-02-18T12:29:09.500Z,1020.94
2018-02-18T12:30:09.495Z,1020.90
2018-02-18T12:31:09.841Z,1020.87
2018-02-18T12:32:09.716Z,1020.86
2018-02-18T12:33:09.586Z,1020.97
2018-02-18T12:34:09.457Z,1020.86